Nansha Dao, China
Current Conditions -  °F | °C
As of 5:00 PM on Friday 28 Nov 2014 (Local Time) from WBKT Reporting Station
Broken Clouds Broken Clouds  
Wind Chill: 82°   Ceiling: 27000
Heat Index: 92°   Visibility: 6mi
Dew Point: 79°   Wind: 5mph
Humidity: 89%   Direction: 210°SSW
Pressure: 29.71"   Gusts: NA
Location:  10.38°N, 114.37°E
Report Text: WBKT 280900Z 21004KT 9999 FEW008 SCT013 BKN270 28/26 Q1006
Loading
Personal Weather Stations






























Interactive Weather Map New forecast layout! Learn more

10-Day Weather Forecast

Advertisements
Track Severe Weather on mobile